createdAt,value
2023-05-17T09:57:38.198Z,88.70
2023-05-17T10:00:13.107Z,89.30
2023-05-17T10:02:42.615Z,87.40
2023-05-17T10:05:12.464Z,86.50
2023-05-17T10:07:41.170Z,85.40
2023-05-17T10:10:09.204Z,85.80
2023-05-17T10:12:39.231Z,85.10
2023-05-17T10:15:08.477Z,86.30
2023-05-17T10:17:36.044Z,81.10
2023-05-17T10:20:06.809Z,81.70
2023-05-17T10:22:34.038Z,82.40
2023-05-17T10:25:01.434Z,81.40
2023-05-17T10:27:29.816Z,81.80
2023-05-17T10:29:58.288Z,81.60
2023-05-17T10:32:28.858Z,83.60
2023-05-17T10:35:09.307Z,85.40
2023-05-17T10:37:39.099Z,82.90
2023-05-17T10:40:06.745Z,86.20
2023-05-17T10:42:34.735Z,82.40
2023-05-17T10:45:01.956Z,81.60
2023-05-17T10:47:34.858Z,82.40
2023-05-17T10:50:03.391Z,82.40
2023-05-17T10:52:30.990Z,81.40
2023-05-17T10:54:59.755Z,81.90
2023-05-17T10:57:49.683Z,81.80
2023-05-17T11:00:21.659Z,81.90
2023-05-17T11:02:50.461Z,81.60
2023-05-17T11:05:26.066Z,81.40
2023-05-17T11:08:11.625Z,81.20
2023-05-17T11:10:57.160Z,82.20
2023-05-17T11:13:27.483Z,82.30
2023-05-17T11:16:07.978Z,75.30
2023-05-17T11:18:48.010Z,73.40
2023-05-17T11:21:16.345Z,73.10
2023-05-17T11:23:47.299Z,72.80
2023-05-17T11:26:29.172Z,72.70
2023-05-17T11:29:10.822Z,72.00
2023-05-17T11:31:43.986Z,70.50
2023-05-17T11:34:11.873Z,72.80
2023-05-17T11:36:54.698Z,70.90
2023-05-17T11:39:23.649Z,70.30
2023-05-17T11:41:55.826Z,70.00
2023-05-17T15:21:45.790Z,67.70
2023-05-17T15:24:14.409Z,67.80
2023-05-17T15:26:42.214Z,68.30
2023-05-17T15:29:09.036Z,68.70
2023-05-17T15:31:35.868Z,69.00
2023-05-17T15:34:03.210Z,69.80
2023-05-17T15:36:30.184Z,69.00
2023-05-17T15:38:57.021Z,69.50
2023-05-17T15:41:29.876Z,69.20
2023-05-17T15:43:57.214Z,69.60
2023-05-17T15:46:24.136Z,69.90
2023-05-17T15:48:50.961Z,69.20
2023-05-17T15:51:17.906Z,68.70
2023-05-17T15:53:44.853Z,68.90
2023-05-17T15:56:11.730Z,70.20
2023-05-17T15:58:38.689Z,70.50
2023-05-17T16:01:06.554Z,71.20
2023-05-17T16:03:33.931Z,70.90
2023-05-17T16:06:01.001Z,71.10
2023-05-17T16:08:27.890Z,71.50
2023-05-17T16:10:54.728Z,72.30
2023-05-17T16:13:22.949Z,72.10
2023-05-17T16:15:49.768Z,72.10
2023-05-17T16:18:16.726Z,71.60
2023-05-17T16:20:44.177Z,71.00
2023-05-17T16:23:11.830Z,70.80
2023-05-17T16:25:38.691Z,71.40
2023-05-17T16:28:05.537Z,71.60
2023-05-17T16:30:32.676Z,72.60
2023-05-17T16:32:59.609Z,72.60
2023-05-17T16:35:26.667Z,73.20
2023-05-17T16:37:53.542Z,72.70
2023-05-17T16:40:20.458Z,73.70
2023-05-17T16:42:48.258Z,72.50
2023-05-17T16:45:15.073Z,72.70
2023-05-17T16:47:42.015Z,73.20
2023-05-17T16:50:09.360Z,73.30
2023-05-17T16:52:36.413Z,74.50
2023-05-17T16:55:04.160Z,73.60
2023-05-17T16:57:31.830Z,76.50
2023-05-17T17:00:00.881Z,76.10
2023-05-17T17:02:28.777Z,77.40
2023-05-17T17:04:55.836Z,79.30
2023-05-17T17:07:25.764Z,76.70
2023-05-17T17:09:52.640Z,78.70
2023-05-17T17:12:24.580Z,78.00
2023-05-17T17:14:52.759Z,78.70
2023-05-17T17:17:19.658Z,76.90
2023-05-17T17:19:46.530Z,77.10
2023-05-17T17:22:14.724Z,77.10
2023-05-17T17:24:42.679Z,75.30
2023-05-17T17:27:09.489Z,73.60
2023-05-17T17:29:36.285Z,73.10
2023-05-17T17:32:03.234Z,72.80
2023-05-17T17:34:30.219Z,72.90
2023-05-17T17:36:57.799Z,72.60
2023-05-17T17:39:24.698Z,72.50
2023-05-17T17:41:51.552Z,72.80
2023-05-17T17:44:18.390Z,73.50
2023-05-17T17:46:45.497Z,73.90
2023-05-17T17:49:12.464Z,73.80
2023-05-17T17:51:39.240Z,74.20
2023-05-17T17:54:07.350Z,74.30
2023-05-17T17:56:34.291Z,74.70
2023-05-17T17:59:01.142Z,75.10
2023-05-17T18:01:29.653Z,75.00
2023-05-17T18:03:57.221Z,75.90
2023-05-17T18:06:24.174Z,75.60
2023-05-17T18:08:51.019Z,76.30
2023-05-17T18:11:17.860Z,76.60
2023-05-17T18:13:44.794Z,76.20
2023-05-17T18:16:11.653Z,79.70
2023-05-17T18:18:40.721Z,78.20
2023-05-17T18:21:09.339Z,80.20
2023-05-17T18:23:36.418Z,77.20
2023-05-17T18:26:03.613Z,79.20
2023-05-17T18:28:41.147Z,78.40
2023-05-17T18:31:08.535Z,80.70
2023-05-17T18:33:35.486Z,79.70
2023-05-17T18:36:02.424Z,80.10
2023-05-17T18:38:29.263Z,80.10
2023-05-17T18:40:56.284Z,80.90
2023-05-17T18:43:23.182Z,83.90
2023-05-17T18:45:50.907Z,84.10
2023-05-17T18:48:18.820Z,84.00
2023-05-17T18:50:45.820Z,84.00
2023-05-17T18:53:13.128Z,83.20
2023-05-17T18:55:40.907Z,84.10
2023-05-17T18:58:07.906Z,85.60
2023-05-17T19:00:34.853Z,86.40
2023-05-17T19:03:02.028Z,87.90
2023-05-17T19:05:29.118Z,88.20
2023-05-17T19:07:56.025Z,88.70
2023-05-17T19:10:23.030Z,89.20
2023-05-17T19:12:49.981Z,88.60
2023-05-17T19:15:16.935Z,89.80
2023-05-17T19:17:44.063Z,89.50
2023-05-17T19:20:11.905Z,88.70
2023-05-17T19:22:40.030Z,88.70
2023-05-17T19:25:07.793Z,88.90
2023-05-17T19:27:35.526Z,90.00
2023-05-17T19:30:02.826Z,90.40
2023-05-17T19:32:34.288Z,90.20
2023-05-17T19:35:03.154Z,90.10
2023-05-17T19:37:32.204Z,90.40
2023-05-17T19:40:01.581Z,90.40
2023-05-17T19:42:31.148Z,90.40
2023-05-17T19:44:58.506Z,90.50
2023-05-17T19:47:25.979Z,90.40
2023-05-17T19:49:52.943Z,90.30
2023-05-17T19:52:19.864Z,90.60
2023-05-17T19:54:48.528Z,91.90
2023-05-17T19:57:15.850Z,91.50
2023-05-17T19:59:44.490Z,91.20
2023-05-17T20:02:13.410Z,90.50
2023-05-17T20:04:40.709Z,90.80
2023-05-17T20:07:07.649Z,91.10
2023-05-17T20:09:36.102Z,91.10
2023-05-17T20:12:04.715Z,90.60
2023-05-17T20:14:35.473Z,90.80
2023-05-17T20:17:02.824Z,90.70
2023-05-17T20:19:32.764Z,90.80
2023-05-17T20:22:01.962Z,91.10
